Time;durP1;ratioP1;P1;durP2;ratioP2;P2;SDS_P1;SDS_P2;PMS_P1;PMS_P2;Temp;Humidity;BMP_temperature;BMP_pressure;BME280_temperature;BME280_humidity;BME280_pressure;Samples;Min_cycle;Max_cycle;Signal;HPM_P1;HPM_P2
2022/06/18 00:00:16;;;;;;;6.38;3.50;;;;;;;;;;5011497;28;100256;-74
2022/06/18 00:02:42;;;;;;;11.15;3.15;;;;;;;;;;5011588;28;98510;-74
2022/06/18 00:05:11;;;;;;;5.18;3.05;;;;;;;;;;5013838;28;100284;-74
2022/06/18 00:07:38;;;;;;;8.20;3.00;;;;;;;;;;5011712;28;99003;-73
2022/06/18 00:10:06;;;;;;;7.00;3.22;;;;;;;;;;5010907;28;99930;-74
2022/06/18 00:15:21;;;;;;;5.28;3.45;;;;;;;;;;5012511;28;97824;-74
2022/06/18 00:17:47;;;;;;;6.72;3.40;;;;;;;;;;5010826;28;98591;-74
2022/06/18 00:20:14;;;;;;;9.80;3.45;;;;;;;;;;5009458;28;99356;-73
2022/06/18 00:22:42;;;;;;;7.90;3.55;;;;;;;;;;4998284;28;99779;-73
2022/06/18 00:25:17;;;;;;;4.63;3.40;;;;;;;;;;5010329;28;100850;-74
2022/06/18 00:27:43;;;;;;;5.82;3.38;;;;;;;;;;5013697;28;99479;-73
2022/06/18 00:30:11;;;;;;;9.35;3.65;;;;;;;;;;5013470;28;98781;-73
2022/06/18 00:32:38;;;;;;;5.93;3.88;;;;;;;;;;5029851;28;99094;-73
2022/06/18 00:35:04;;;;;;;13.25;3.70;;;;;;;;;;5030087;27;98685;-73
2022/06/18 00:37:31;;;;;;;9.15;3.67;;;;;;;;;;5031541;28;99219;-74
2022/06/18 00:39:58;;;;;;;9.63;3.45;;;;;;;;;;5029138;28;101350;-74
2022/06/18 00:42:29;;;;;;;5.30;3.30;;;;;;;;;;5012687;28;98894;-73
2022/06/18 00:44:58;;;;;;;6.55;3.40;;;;;;;;;;5009478;28;100031;-73
2022/06/18 00:47:30;;;;;;;5.07;3.08;;;;;;;;;;5010037;28;100556;-73
2022/06/18 00:50:02;;;;;;;8.02;3.40;;;;;;;;;;5014098;28;98594;-73
2022/06/18 00:52:31;;;;;;;4.13;3.42;;;;;;;;;;5010476;28;99686;-74
2022/06/18 00:54:58;;;;;;;7.72;3.35;;;;;;;;;;5010557;28;99360;-74
2022/06/18 00:57:28;;;;;;;12.70;3.63;;;;;;;;;;5009346;28;100266;-74
2022/06/18 01:00:04;;;;;;;7.40;3.53;;;;;;;;;;5009510;28;99250;-74
2022/06/18 01:02:33;;;;;;;5.07;3.30;;;;;;;;;;5010873;28;98500;-74
2022/06/18 01:05:00;;;;;;;7.82;3.25;;;;;;;;;;5011174;28;100105;-74
2022/06/18 01:07:28;;;;;;;4.22;3.67;;;;;;;;;;5008083;28;102021;-74
2022/06/18 01:09:55;;;;;;;6.45;3.38;;;;;;;;;;5008751;28;100370;-73
2022/06/18 01:12:23;;;;;;;8.68;3.58;;;;;;;;;;5011841;28;99997;-74
2022/06/18 01:14:51;;;;;;;8.35;3.42;;;;;;;;;;5007976;28;98986;-73
2022/06/18 01:17:18;;;;;;;7.93;4.20;;;;;;;;;;5007837;28;98999;-73
2022/06/18 01:19:47;;;;;;;5.15;3.22;;;;;;;;;;5008172;28;100245;-73
2022/06/18 01:22:33;;;;;;;14.45;3.95;;;;;;;;;;5008951;28;98952;-73
2022/06/18 01:25:06;;;;;;;11.95;3.60;;;;;;;;;;5009162;28;101198;-73
2022/06/18 01:27:37;;;;;;;8.02;3.30;;;;;;;;;;5007776;28;100114;-74
2022/06/18 01:30:10;;;;;;;5.93;3.50;;;;;;;;;;5009433;28;98016;-74
2022/06/18 01:32:41;;;;;;;9.65;3.97;;;;;;;;;;5008874;28;100102;-74
2022/06/18 01:35:09;;;;;;;7.30;3.75;;;;;;;;;;5011581;28;101797;-73
2022/06/18 01:37:50;;;;;;;5.65;3.10;;;;;;;;;;5008273;28;100076;-74
2022/06/18 01:40:45;;;;;;;9.05;3.75;;;;;;;;;;5008777;28;101876;-73
2022/06/18 01:43:14;;;;;;;3.75;3.20;;;;;;;;;;5007996;28;98807;-73
2022/06/18 01:45:41;;;;;;;6.65;3.58;;;;;;;;;;5008074;28;101552;-74
2022/06/18 01:48:08;;;;;;;8.57;3.78;;;;;;;;;;5007969;28;101736;-74
2022/06/18 01:50:42;;;;;;;7.18;3.55;;;;;;;;;;5008020;28;98601;-74
2022/06/18 01:53:21;;;;;;;5.63;3.75;;;;;;;;;;5009791;28;101186;-73
2022/06/18 01:55:52;;;;;;;4.82;3.83;;;;;;;;;;5030011;28;98547;-74
2022/06/18 01:58:24;;;;;;;17.60;3.90;;;;;;;;;;5028690;28;100456;-74
2022/06/18 02:00:53;;;;;;;5.72;4.32;;;;;;;;;;5028169;28;101154;-74
2022/06/18 02:03:20;;;;;;;6.70;3.88;;;;;;;;;;5027523;28;99348;-73
2022/06/18 02:05:47;;;;;;;12.88;3.78;;;;;;;;;;5020704;28;100653;-73
2022/06/18 02:08:15;;;;;;;10.60;4.05;;;;;;;;;;5009524;28;99178;-74
2022/06/18 02:10:52;;;;;;;7.65;3.80;;;;;;;;;;5007066;28;98638;-74
2022/06/18 02:13:21;;;;;;;10.45;4.70;;;;;;;;;;5009250;28;101555;-73
2022/06/18 02:15:53;;;;;;;12.50;3.58;;;;;;;;;;5007167;28;100380;-74
2022/06/18 02:18:20;;;;;;;7.88;3.63;;;;;;;;;;5012779;28;98561;-73
2022/06/18 02:20:48;;;;;;;6.38;3.83;;;;;;;;;;5007972;28;100076;-74
2022/06/18 02:23:16;;;;;;;12.30;3.63;;;;;;;;;;4990996;28;99558;-73
2022/06/18 02:25:44;;;;;;;12.75;4.15;;;;;;;;;;4987377;28;101432;-73
2022/06/18 02:28:13;;;;;;;9.40;4.22;;;;;;;;;;4988918;28;100991;-74
2022/06/18 02:30:40;;;;;;;7.47;4.13;;;;;;;;;;5004036;28;99048;-73
2022/06/18 02:33:06;;;;;;;11.02;3.95;;;;;;;;;;4989828;28;98916;-73
2022/06/18 02:35:32;;;;;;;7.45;3.97;;;;;;;;;;4987449;28;99906;-73
2022/06/18 02:37:59;;;;;;;8.55;3.85;;;;;;;;;;4988748;28;98548;-73
2022/06/18 02:40:27;;;;;;;17.98;4.68;;;;;;;;;;4992778;28;98975;-73
2022/06/18 02:42:55;;;;;;;9.98;4.30;;;;;;;;;;4989200;28;98965;-73
2022/06/18 02:45:22;;;;;;;9.52;4.50;;;;;;;;;;4987483;28;100054;-73
2022/06/18 02:47:49;;;;;;;7.53;4.10;;;;;;;;;;5005675;28;99069;-73
2022/06/18 02:50:17;;;;;;;10.38;4.78;;;;;;;;;;5009485;28;98609;-73
2022/06/18 02:52:49;;;;;;;5.57;3.90;;;;;;;;;;5007809;28;99299;-73
2022/06/18 02:55:28;;;;;;;10.73;4.38;;;;;;;;;;5007489;28;101837;-73
2022/06/18 02:57:57;;;;;;;13.85;4.15;;;;;;;;;;5009133;28;98555;-73
2022/06/18 03:00:23;;;;;;;16.33;4.57;;;;;;;;;;5009260;28;101531;-73
2022/06/18 03:02:50;;;;;;;6.88;4.60;;;;;;;;;;5015356;28;99332;-73
2022/06/18 03:05:21;;;;;;;18.63;4.25;;;;;;;;;;5011686;28;100775;-73
2022/06/18 03:07:47;;;;;;;13.95;4.38;;;;;;;;;;5011360;28;99089;-73
2022/06/18 03:13:01;;;;;;;7.85;4.55;;;;;;;;;;5010361;28;100500;-73
2022/06/18 03:15:31;;;;;;;11.35;5.40;;;;;;;;;;5010233;28;100560;-73
2022/06/18 03:17:59;;;;;;;11.77;5.05;;;;;;;;;;5009765;28;99309;-73
2022/06/18 03:20:30;;;;;;;14.50;4.72;;;;;;;;;;5013468;28;102288;-73
2022/06/18 03:22:57;;;;;;;11.48;4.32;;;;;;;;;;5031704;28;99135;-73
2022/06/18 03:25:25;;;;;;;18.73;5.05;;;;;;;;;;5034289;28;98664;-73
2022/06/18 03:27:51;;;;;;;6.35;4.55;;;;;;;;;;5031020;28;98798;-73
2022/06/18 03:30:18;;;;;;;15.93;5.40;;;;;;;;;;5028377;28;99104;-73
2022/06/18 03:32:44;;;;;;;10.57;4.78;;;;;;;;;;5012087;28;98911;-73
2022/06/18 03:35:10;;;;;;;12.52;5.68;;;;;;;;;;5010201;28;101181;-73
2022/06/18 03:37:38;;;;;;;13.88;5.25;;;;;;;;;;5016033;28;98625;-73
2022/06/18 03:40:06;;;;;;;10.52;4.93;;;;;;;;;;5016785;28;101648;-73
2022/06/18 03:42:32;;;;;;;10.63;5.22;;;;;;;;;;5008978;28;101041;-73
2022/06/18 03:44:59;;;;;;;12.05;5.82;;;;;;;;;;5009942;28;98725;-73
2022/06/18 03:47:25;;;;;;;14.38;5.65;;;;;;;;;;5013161;28;101163;-73
2022/06/18 03:49:52;;;;;;;15.38;5.85;;;;;;;;;;5009346;28;98648;-73
2022/06/18 03:52:19;;;;;;;17.58;5.63;;;;;;;;;;5010072;28;98956;-73
2022/06/18 03:54:46;;;;;;;12.02;6.03;;;;;;;;;;5010320;28;101316;-73
2022/06/18 03:57:16;;;;;;;17.05;6.15;;;;;;;;;;5009756;28;99143;-73
2022/06/18 03:59:44;;;;;;;13.03;5.77;;;;;;;;;;5010769;28;101523;-73
2022/06/18 04:02:10;;;;;;;17.33;6.35;;;;;;;;;;5009017;28;101101;-73
2022/06/18 04:04:40;;;;;;;18.63;5.93;;;;;;;;;;5010183;28;98613;-73
2022/06/18 04:07:15;;;;;;;15.48;6.03;;;;;;;;;;5012776;28;100987;-73
2022/06/18 04:09:56;;;;;;;16.35;7.05;;;;;;;;;;5009006;28;98951;-73
2022/06/18 04:12:26;;;;;;;12.77;6.10;;;;;;;;;;5010621;28;101456;-73
2022/06/18 04:15:07;;;;;;;11.80;5.93;;;;;;;;;;5009796;28;100159;-74
2022/06/18 04:17:42;;;;;;;26.05;6.28;;;;;;;;;;5008924;28;99137;-73
2022/06/18 04:20:19;;;;;;;10.93;5.80;;;;;;;;;;5010089;28;99052;-74
2022/06/18 04:22:45;;;;;;;11.07;6.40;;;;;;;;;;5002285;28;99509;-73
2022/06/18 04:25:13;;;;;;;13.43;7.00;;;;;;;;;;4990081;28;97879;-73
2022/06/18 04:27:40;;;;;;;18.40;6.88;;;;;;;;;;4989874;28;100973;-73
2022/06/18 04:30:11;;;;;;;13.77;6.55;;;;;;;;;;5011983;28;101349;-74
2022/06/18 04:32:50;;;;;;;12.93;5.65;;;;;;;;;;5009422;28;101057;-74
2022/06/18 04:35:17;;;;;;;12.60;5.63;;;;;;;;;;5009451;28;101717;-74
2022/06/18 04:37:53;;;;;;;12.27;6.07;;;;;;;;;;5008887;28;98657;-74
2022/06/18 04:40:34;;;;;;;12.90;6.55;;;;;;;;;;5009971;28;101686;-74
2022/06/18 04:43:31;;;;;;;14.20;6.50;;;;;;;;;;5009319;28;100639;-73
2022/06/18 04:45:58;;;;;;;16.35;6.93;;;;;;;;;;5007838;28;98957;-74
2022/06/18 04:48:26;;;;;;;16.55;6.70;;;;;;;;;;5009582;28;101295;-74
2022/06/18 04:50:53;;;;;;;16.75;6.78;;;;;;;;;;5008976;28;100215;-73
2022/06/18 04:53:20;;;;;;;21.75;7.45;;;;;;;;;;5011545;28;98651;-73
2022/06/18 04:55:53;;;;;;;16.85;6.20;;;;;;;;;;5009089;28;101576;-73
2022/06/18 04:58:20;;;;;;;17.15;6.80;;;;;;;;;;5008363;28;99313;-74
2022/06/18 05:00:53;;;;;;;19.98;6.75;;;;;;;;;;5009213;28;102369;-73
2022/06/18 05:03:29;;;;;;;11.90;6.55;;;;;;;;;;5010620;28;99338;-73
2022/06/18 05:05:59;;;;;;;18.88;6.63;;;;;;;;;;5009647;28;98631;-75
2022/06/18 05:08:40;;;;;;;16.73;5.70;;;;;;;;;;5009178;28;101711;-75
2022/06/18 05:11:35;;;;;;;13.10;6.75;;;;;;;;;;4971721;28;99000;-75
2022/06/18 05:14:20;;;;;;;13.80;5.68;;;;;;;;;;5008222;28;98905;-76
2022/06/18 05:17:05;;;;;;;15.00;5.95;;;;;;;;;;5012373;28;101908;-75
2022/06/18 05:19:34;;;;;;;19.15;5.93;;;;;;;;;;5003427;28;99828;-75
2022/06/18 05:22:03;;;;;;;15.00;6.38;;;;;;;;;;4988620;28;98976;-75
2022/06/18 05:24:30;;;;;;;18.85;5.53;;;;;;;;;;4990023;28;103017;-75
2022/06/18 05:26:58;;;;;;;12.55;6.18;;;;;;;;;;4988234;28;99085;-75
2022/06/18 05:29:25;;;;;;;14.18;6.22;;;;;;;;;;4988960;28;99910;-75
2022/06/18 05:31:52;;;;;;;16.13;5.80;;;;;;;;;;4988312;28;101031;-75
2022/06/18 05:34:21;;;;;;;18.50;7.05;;;;;;;;;;5004608;28;98640;-75
2022/06/18 05:36:49;;;;;;;14.80;5.90;;;;;;;;;;4996702;28;102262;-75
2022/06/18 05:39:18;;;;;;;18.17;6.15;;;;;;;;;;4996594;28;99396;-75
2022/06/18 05:41:45;;;;;;;17.77;5.60;;;;;;;;;;4988738;28;100603;-75
2022/06/18 05:44:11;;;;;;;21.75;7.18;;;;;;;;;;4990008;28;99485;-75
2022/06/18 05:46:38;;;;;;;14.63;6.10;;;;;;;;;;5000242;28;98625;-75
2022/06/18 05:49:04;;;;;;;16.85;6.57;;;;;;;;;;5007057;28;101183;-75
2022/06/18 05:51:31;;;;;;;18.05;6.60;;;;;;;;;;5007906;28;99584;-76
2022/06/18 05:53:57;;;;;;;15.70;6.38;;;;;;;;;;5016732;28;98669;-74
2022/06/18 05:56:46;;;;;;;14.52;6.35;;;;;;;;;;5011299;28;98668;-74
2022/06/18 05:59:45;;;;;;;19.52;7.05;;;;;;;;;;4998193;28;100262;-74
2022/06/18 06:02:13;;;;;;;20.58;7.35;;;;;;;;;;5018396;28;98621;-74
2022/06/18 06:04:39;;;;;;;16.67;6.57;;;;;;;;;;4996058;28;101931;-74
2022/06/18 06:07:08;;;;;;;20.60;7.35;;;;;;;;;;4997884;28;99379;-74
2022/06/18 06:12:19;;;;;;;15.35;6.10;;;;;;;;;;5006881;27;102164;-75
2022/06/18 06:14:46;;;;;;;13.02;6.13;;;;;;;;;;4991744;28;102119;-74
2022/06/18 06:17:13;;;;;;;18.08;6.70;;;;;;;;;;5001271;28;100063;-74
2022/06/18 06:19:40;;;;;;;18.13;6.95;;;;;;;;;;5006990;28;101020;-75
2022/06/18 06:22:07;;;;;;;19.15;7.05;;;;;;;;;;5009952;28;98515;-75
2022/06/18 06:24:33;;;;;;;21.20;6.85;;;;;;;;;;5003889;28;99845;-76
2022/06/18 06:27:00;;;;;;;17.00;7.13;;;;;;;;;;4990310;28;100038;-75
2022/06/18 06:29:26;;;;;;;18.00;6.75;;;;;;;;;;4989399;28;100543;-75
2022/06/18 06:31:53;;;;;;;20.52;7.32;;;;;;;;;;4992034;28;99447;-75
2022/06/18 06:34:19;;;;;;;20.55;7.40;;;;;;;;;;4996547;28;99938;-75
2022/06/18 06:36:45;;;;;;;17.25;6.72;;;;;;;;;;4987171;28;99174;-75
2022/06/18 06:39:12;;;;;;;26.27;6.55;;;;;;;;;;4989371;28;101336;-74
2022/06/18 06:41:38;;;;;;;16.02;7.75;;;;;;;;;;4990298;28;101161;-75
2022/06/18 06:44:04;;;;;;;21.05;6.72;;;;;;;;;;4990402;28;99188;-75
2022/06/18 06:46:31;;;;;;;20.00;7.10;;;;;;;;;;4990681;28;99972;-75
2022/06/18 06:48:58;;;;;;;19.70;7.07;;;;;;;;;;4991024;28;100697;-75
2022/06/18 06:51:26;;;;;;;19.75;6.55;;;;;;;;;;4985038;28;101051;-75
2022/06/18 06:53:52;;;;;;;18.23;7.10;;;;;;;;;;4987588;28;99051;-75
2022/06/18 06:59:05;;;;;;;23.25;6.45;;;;;;;;;;4996083;28;99385;-74
2022/06/18 07:01:34;;;;;;;20.08;6.70;;;;;;;;;;5004714;28;99063;-74
2022/06/18 07:04:01;;;;;;;15.63;6.78;;;;;;;;;;4995173;28;101105;-75
2022/06/18 07:06:28;;;;;;;15.57;6.88;;;;;;;;;;4992676;28;100309;-75
2022/06/18 07:08:54;;;;;;;26.45;7.75;;;;;;;;;;4989376;28;100129;-75
2022/06/18 07:11:20;;;;;;;15.32;6.88;;;;;;;;;;4986504;28;100453;-75
2022/06/18 07:13:47;;;;;;;17.98;6.47;;;;;;;;;;4986540;28;100896;-75
2022/06/18 07:16:14;;;;;;;16.17;6.32;;;;;;;;;;4989422;28;100760;-75
2022/06/18 07:18:41;;;;;;;18.27;7.50;;;;;;;;;;4987640;28;99832;-76
2022/06/18 07:21:10;;;;;;;19.27;6.85;;;;;;;;;;4989874;28;100248;-75
2022/06/18 07:23:37;;;;;;;24.85;7.50;;;;;;;;;;4993189;28;99227;-75
2022/06/18 07:26:03;;;;;;;23.75;7.53;;;;;;;;;;4989064;28;100592;-76
2022/06/18 07:28:30;;;;;;;21.17;7.53;;;;;;;;;;4988193;28;99338;-75
2022/06/18 07:30:56;;;;;;;21.02;8.20;;;;;;;;;;4990740;28;101151;-72
2022/06/18 07:33:24;;;;;;;17.63;8.02;;;;;;;;;;4987958;28;98802;-75
2022/06/18 07:35:51;;;;;;;27.30;7.88;;;;;;;;;;4988681;28;100328;-75
2022/06/18 07:38:17;;;;;;;23.92;7.15;;;;;;;;;;4990900;28;99580;-70
2022/06/18 07:40:47;;;;;;;21.50;7.88;;;;;;;;;;4989341;28;98784;-74
2022/06/18 07:43:16;;;;;;;22.40;6.68;;;;;;;;;;4990568;28;99362;-74
2022/06/18 07:45:44;;;;;;;25.13;7.13;;;;;;;;;;4988195;28;99567;-74
2022/06/18 07:48:11;;;;;;;20.88;7.70;;;;;;;;;;4992966;28;99824;-74
2022/06/18 07:50:41;;;;;;;18.10;7.13;;;;;;;;;;4996203;28;100250;-74
2022/06/18 07:53:08;;;;;;;24.73;7.95;;;;;;;;;;4988608;28;102328;-74
2022/06/18 07:55:34;;;;;;;24.55;7.40;;;;;;;;;;4993898;27;99865;-75
2022/06/18 07:58:00;;;;;;;17.60;7.13;;;;;;;;;;4991052;28;99390;-74
2022/06/18 08:00:27;;;;;;;21.15;6.75;;;;;;;;;;4993257;28;100587;-73
2022/06/18 08:02:53;;;;;;;21.55;6.28;;;;;;;;;;4993630;28;99148;-74
2022/06/18 08:05:27;;;;;;;18.10;6.45;;;;;;;;;;4994432;28;100250;-73
2022/06/18 08:07:57;;;;;;;24.17;6.75;;;;;;;;;;4994689;28;98611;-74
2022/06/18 08:10:46;;;;;;;14.10;5.82;;;;;;;;;;4993251;28;100558;-73
2022/06/18 08:13:13;;;;;;;22.85;6.03;;;;;;;;;;4995163;28;98600;-74
2022/06/18 08:15:48;;;;;;;22.40;6.07;;;;;;;;;;4989708;28;100207;-73
2022/06/18 08:18:17;;;;;;;16.38;6.18;;;;;;;;;;4989228;28;104627;-73
2022/06/18 08:20:58;;;;;;;28.90;7.30;;;;;;;;;;4992730;28;99765;-73
2022/06/18 08:23:25;;;;;;;20.10;6.10;;;;;;;;;;4991700;28;99991;-73
2022/06/18 08:25:51;;;;;;;14.10;6.00;;;;;;;;;;4987119;28;100255;-73
2022/06/18 08:28:18;;;;;;;15.85;5.72;;;;;;;;;;4991503;28;98662;-74
2022/06/18 08:30:44;;;;;;;20.30;6.15;;;;;;;;;;4987333;28;99890;-74
2022/06/18 08:33:11;;;;;;;17.40;6.70;;;;;;;;;;4997933;28;101165;-72
2022/06/18 08:35:37;;;;;;;16.65;6.18;;;;;;;;;;4991609;28;100234;-72
2022/06/18 08:38:05;;;;;;;21.73;6.68;;;;;;;;;;4988430;28;100398;-73
2022/06/18 08:40:51;;;;;;;19.77;6.70;;;;;;;;;;4991621;28;99277;-74
2022/06/18 08:43:29;;;;;;;22.48;6.57;;;;;;;;;;4993116;28;100120;-71
2022/06/18 08:46:06;;;;;;;21.73;5.90;;;;;;;;;;4989820;28;100370;-74
2022/06/18 08:48:33;;;;;;;16.13;6.10;;;;;;;;;;4993287;28;98630;-74
2022/06/18 08:51:09;;;;;;;16.70;5.55;;;;;;;;;;4992514;28;102000;-74
2022/06/18 08:53:53;;;;;;;16.13;6.03;;;;;;;;;;4989185;28;100236;-73
2022/06/18 08:56:31;;;;;;;17.52;5.63;;;;;;;;;;4992927;28;98558;-73
2022/06/18 08:59:15;;;;;;;20.77;6.68;;;;;;;;;;4994562;28;100466;-74
2022/06/18 09:01:45;;;;;;;11.27;4.97;;;;;;;;;;4991806;28;97872;-73
2022/06/18 09:04:22;;;;;;;14.88;4.70;;;;;;;;;;4990914;28;99276;-74
2022/06/18 09:06:51;;;;;;;17.80;4.75;;;;;;;;;;4992356;28;100453;-73
2022/06/18 09:09:25;;;;;;;11.90;4.72;;;;;;;;;;4994438;28;99578;-73
2022/06/18 09:12:01;;;;;;;13.00;5.18;;;;;;;;;;4992328;28;100478;-74
2022/06/18 09:14:40;;;;;;;22.05;4.93;;;;;;;;;;4989555;28;101059;-74
2022/06/18 09:17:13;;;;;;;22.05;4.80;;;;;;;;;;4988932;28;98633;-74
2022/06/18 09:19:41;;;;;;;14.57;4.65;;;;;;;;;;4993773;28;99365;-74
2022/06/18 09:22:10;;;;;;;12.80;6.00;;;;;;;;;;4990363;28;100142;-74
2022/06/18 09:24:40;;;;;;;29.13;5.32;;;;;;;;;;4988442;28;100188;-74
2022/06/18 09:27:08;;;;;;;16.27;6.28;;;;;;;;;;4989721;28;99476;-73
2022/06/18 09:29:34;;;;;;;12.65;4.82;;;;;;;;;;4989179;28;100836;-73
2022/06/18 09:32:07;;;;;;;14.25;4.65;;;;;;;;;;4991614;28;100036;-73
2022/06/18 09:34:54;;;;;;;18.52;5.55;;;;;;;;;;4994448;28;100881;-73
2022/06/18 09:37:23;;;;;;;15.57;5.05;;;;;;;;;;4997999;28;99357;-73
2022/06/18 09:39:52;;;;;;;18.45;5.30;;;;;;;;;;4990411;28;100076;-73
2022/06/18 09:42:21;;;;;;;13.05;4.55;;;;;;;;;;4993757;28;100534;-73
2022/06/18 09:44:54;;;;;;;9.68;4.22;;;;;;;;;;4993610;28;100044;-74
2022/06/18 09:47:35;;;;;;;14.63;4.70;;;;;;;;;;4990077;28;100211;-73
2022/06/18 09:50:03;;;;;;;15.52;3.92;;;;;;;;;;4993322;28;100332;-73
2022/06/18 09:52:34;;;;;;;13.10;4.18;;;;;;;;;;4993775;28;100054;-74
2022/06/18 09:55:07;;;;;;;12.65;3.53;;;;;;;;;;4988865;28;100310;-74
2022/06/18 09:57:36;;;;;;;16.92;3.72;;;;;;;;;;4992297;28;100101;-74
2022/06/18 10:00:10;;;;;;;9.88;3.70;;;;;;;;;;4997816;28;100309;-74
2022/06/18 10:02:59;;;;;;;8.23;3.60;;;;;;;;;;4995761;28;99946;-74
2022/06/18 10:08:13;;;;;;;6.07;2.75;;;;;;;;;;4987697;28;100302;-73
2022/06/18 10:10:46;;;;;;;7.90;2.42;;;;;;;;;;4991687;28;99011;-73
2022/06/18 10:13:14;;;;;;;5.38;2.50;;;;;;;;;;4993719;28;99957;-73
2022/06/18 10:15:41;;;;;;;9.95;2.53;;;;;;;;;;4987733;28;100125;-73
2022/06/18 10:18:17;;;;;;;12.38;2.63;;;;;;;;;;4990938;28;99470;-74
2022/06/18 10:20:46;;;;;;;6.32;2.50;;;;;;;;;;4989419;28;99568;-74
2022/06/18 10:23:19;;;;;;;9.13;2.63;;;;;;;;;;4990440;28;100315;-73
2022/06/18 10:25:48;;;;;;;9.10;2.83;;;;;;;;;;4992583;28;100520;-73
2022/06/18 10:28:38;;;;;;;9.18;2.63;;;;;;;;;;4995853;28;100227;-73
2022/06/18 10:31:23;;;;;;;5.65;2.58;;;;;;;;;;4989443;28;99950;-73
2022/06/18 10:34:02;;;;;;;5.78;2.22;;;;;;;;;;4993991;28;101192;-74
2022/06/18 10:36:43;;;;;;;12.10;2.47;;;;;;;;;;4986365;28;100592;-73
2022/06/18 10:39:13;;;;;;;9.68;2.70;;;;;;;;;;4987646;28;99197;-74
2022/06/18 10:41:39;;;;;;;11.55;2.42;;;;;;;;;;4987505;28;100047;-74
2022/06/18 10:44:14;;;;;;;5.68;2.35;;;;;;;;;;4986345;28;99447;-73
2022/06/18 10:46:41;;;;;;;6.55;2.58;;;;;;;;;;4990568;27;98852;-74
2022/06/18 10:49:08;;;;;;;7.60;2.15;;;;;;;;;;4998123;28;99081;-73
2022/06/18 10:51:41;;;;;;;6.93;2.60;;;;;;;;;;4990279;28;100798;-73
2022/06/18 10:54:08;;;;;;;5.80;2.30;;;;;;;;;;4991348;28;99911;-73
2022/06/18 10:56:45;;;;;;;7.55;2.97;;;;;;;;;;4987344;28;100308;-74
2022/06/18 10:59:11;;;;;;;5.65;2.40;;;;;;;;;;4998475;28;99712;-70
2022/06/18 11:01:39;;;;;;;10.55;2.67;;;;;;;;;;4998671;28;99875;-76
2022/06/18 11:04:24;;;;;;;10.23;2.50;;;;;;;;;;4998066;28;100165;-72
2022/06/18 11:06:58;;;;;;;5.72;2.42;;;;;;;;;;4988450;28;99007;-73
2022/06/18 11:09:27;;;;;;;5.93;2.28;;;;;;;;;;4989497;28;99049;-71
2022/06/18 11:11:54;;;;;;;10.48;3.13;;;;;;;;;;4998318;28;100105;-73
2022/06/18 11:14:21;;;;;;;6.32;2.33;;;;;;;;;;4987485;28;99150;-72
2022/06/18 11:16:49;;;;;;;9.40;2.63;;;;;;;;;;4988258;28;100938;-73
2022/06/18 11:19:24;;;;;;;6.20;2.58;;;;;;;;;;4988327;28;98562;-73
2022/06/18 11:21:50;;;;;;;9.82;2.33;;;;;;;;;;4991244;28;99965;-72
2022/06/18 11:24:20;;;;;;;6.55;2.25;;;;;;;;;;4992081;28;100212;-72
2022/06/18 11:26:50;;;;;;;8.02;2.55;;;;;;;;;;4991057;28;98587;-72
2022/06/18 11:29:20;;;;;;;6.13;2.08;;;;;;;;;;4995729;28;100018;-72
2022/06/18 11:31:48;;;;;;;4.75;2.20;;;;;;;;;;4991566;28;100145;-72
2022/06/18 11:34:20;;;;;;;18.08;3.35;;;;;;;;;;4995606;28;97819;-72
2022/06/18 11:36:47;;;;;;;;;;;;;;;;;;4991984;28;100621;-72
2022/06/18 11:39:24;;;;;;;8.73;2.72;;;;;;;;;;4991557;28;117841;-72
2022/06/18 11:41:51;;;;;;;4.10;2.42;;;;;;;;;;4991304;28;100220;-72
2022/06/18 11:44:22;;;;;;;3.85;2.20;;;;;;;;;;4995256;28;100095;-72
2022/06/18 11:47:26;;;;;;;10.75;2.58;;;;;;;;;;4990767;28;98639;-72
2022/06/18 11:49:59;;;;;;;5.43;2.10;;;;;;;;;;4949903;28;100077;-71
2022/06/18 11:52:30;;;;;;;5.35;2.13;;;;;;;;;;4949834;28;100225;-71
2022/06/18 11:55:16;;;;;;;4.35;2.25;;;;;;;;;;4970718;28;98653;-72
2022/06/18 11:58:03;;;;;;;3.20;1.85;;;;;;;;;;4995144;28;99567;-71
2022/06/18 12:00:34;;;;;;;5.20;2.88;;;;;;;;;;4990375;28;98147;-72
2022/06/18 12:03:22;;;;;;;7.90;2.33;;;;;;;;;;4991902;28;98627;-72
2022/06/18 12:05:52;;;;;;;6.68;2.25;;;;;;;;;;4991179;28;100153;-72
2022/06/18 12:08:21;;;;;;;3.50;1.60;;;;;;;;;;4990251;28;99763;-72
2022/06/18 12:10:52;;;;;;;8.70;1.88;;;;;;;;;;4991574;28;100710;-72
2022/06/18 12:13:23;;;;;;;7.30;2.40;;;;;;;;;;4991175;28;100234;-71
2022/06/18 12:16:20;;;;;;;6.43;1.58;;;;;;;;;;4990432;28;98955;-72
2022/06/18 12:18:59;;;;;;;3.30;1.77;;;;;;;;;;4952157;28;99927;-72
2022/06/18 12:21:40;;;;;;;11.45;2.35;;;;;;;;;;4993681;28;100238;-71
2022/06/18 12:24:10;;;;;;;4.50;1.80;;;;;;;;;;4990096;28;100374;-72
2022/06/18 12:26:39;;;;;;;8.95;2.00;;;;;;;;;;4990819;28;99616;-72
2022/06/18 12:29:17;;;;;;;3.13;1.70;;;;;;;;;;4990301;28;98670;-72
2022/06/18 12:31:59;;;;;;;6.03;1.85;;;;;;;;;;4991565;28;100405;-72
2022/06/18 12:34:34;;;;;;;4.00;2.08;;;;;;;;;;4990473;28;100867;-71
2022/06/18 12:37:10;;;;;;;11.73;1.67;;;;;;;;;;4990336;28;98590;-72
2022/06/18 12:39:39;;;;;;;5.88;1.60;;;;;;;;;;4990860;28;102088;-71
2022/06/18 12:42:12;;;;;;;4.53;1.88;;;;;;;;;;4994019;28;101412;-72
2022/06/18 12:44:42;;;;;;;9.13;1.80;;;;;;;;;;4990312;28;100053;-72
2022/06/18 12:47:32;;;;;;;8.98;4.47;;;;;;;;;;4990596;28;100308;-72
2022/06/18 12:49:58;;;;;;;5.47;1.60;;;;;;;;;;4989764;28;98732;-72
2022/06/18 12:52:27;;;;;;;7.22;1.58;;;;;;;;;;4991655;28;99810;-71
2022/06/18 12:54:54;;;;;;;4.03;1.23;;;;;;;;;;4990283;28;100904;-71
2022/06/18 12:57:32;;;;;;;4.55;1.45;;;;;;;;;;4990287;28;98498;-71
2022/06/18 13:00:03;;;;;;;8.45;1.77;;;;;;;;;;4990266;28;99919;-72
2022/06/18 13:02:44;;;;;;;13.43;1.88;;;;;;;;;;4990237;28;100444;-72
2022/06/18 13:05:11;;;;;;;2.37;1.13;;;;;;;;;;4993601;28;99062;-72
2022/06/18 13:07:56;;;;;;;4.63;1.60;;;;;;;;;;4990714;28;100418;-72
2022/06/18 13:10:27;;;;;;;3.90;1.80;;;;;;;;;;4990543;28;98623;-72
2022/06/18 13:13:05;;;;;;;3.03;1.30;;;;;;;;;;4989419;28;100156;-72
2022/06/18 13:15:44;;;;;;;3.28;1.73;;;;;;;;;;4990299;28;100526;-72
2022/06/18 13:18:17;;;;;;;3.47;1.40;;;;;;;;;;4990597;28;98217;-72
2022/06/18 13:20:48;;;;;;;9.52;1.60;;;;;;;;;;4990276;28;99130;-72
2022/06/18 13:28:49;;;;;;;3.35;1.45;;;;;;;;;;5013182;28;100146;-72
2022/06/18 13:31:22;;;;;;;3.55;1.70;;;;;;;;;;5010414;28;98521;-72
2022/06/18 13:33:53;;;;;;;2.67;1.75;;;;;;;;;;5008731;28;99085;-72
2022/06/18 13:36:29;;;;;;;8.03;1.93;;;;;;;;;;5009918;28;99469;-72
2022/06/18 13:38:55;;;;;;;4.90;1.27;;;;;;;;;;5009354;28;99353;-72
2022/06/18 13:41:28;;;;;;;2.13;1.33;;;;;;;;;;5010437;28;99908;-72
2022/06/18 13:44:17;;;;;;;7.75;1.85;;;;;;;;;;5008954;28;98911;-72
2022/06/18 13:47:02;;;;;;;2.83;1.27;;;;;;;;;;4996371;28;99051;-72
2022/06/18 13:49:37;;;;;;;8.13;2.53;;;;;;;;;;4990155;28;99954;-72
2022/06/18 13:52:05;;;;;;;5.65;2.22;;;;;;;;;;4992570;28;100486;-72
2022/06/18 13:54:38;;;;;;;6.13;1.63;;;;;;;;;;5009081;28;100053;-71
2022/06/18 13:57:05;;;;;;;8.57;1.52;;;;;;;;;;5000390;28;99762;-72
2022/06/18 13:59:33;;;;;;;2.15;1.60;;;;;;;;;;5002501;28;99383;-72
2022/06/18 14:02:01;;;;;;;3.85;1.65;;;;;;;;;;5008831;28;100809;-72
2022/06/18 14:04:33;;;;;;;6.45;1.92;;;;;;;;;;4989473;28;100579;-73
2022/06/18 14:07:01;;;;;;;3.38;1.38;;;;;;;;;;4988550;28;98575;-72
2022/06/18 14:09:29;;;;;;;3.10;1.60;;;;;;;;;;4990321;28;100011;-72
2022/06/18 14:12:01;;;;;;;13.52;1.42;;;;;;;;;;4989046;28;98510;-72
2022/06/18 14:14:27;;;;;;;;;;;;;;;;;;4994300;28;98577;-72
2022/06/18 14:17:04;;;;;;;3.60;1.52;;;;;;;;;;5002759;28;131491;-72
2022/06/18 14:19:38;;;;;;;4.20;1.60;;;;;;;;;;5000089;28;98700;-72
2022/06/18 14:22:05;;;;;;;4.90;1.63;;;;;;;;;;5008825;28;99949;-73
2022/06/18 14:24:42;;;;;;;3.20;1.02;;;;;;;;;;5007666;28;99441;-72
2022/06/18 14:27:19;;;;;;;11.88;1.67;;;;;;;;;;4989456;28;98514;-72
2022/06/18 14:29:45;;;;;;;3.78;1.58;;;;;;;;;;4988642;28;100019;-74
2022/06/18 14:32:15;;;;;;;3.63;1.55;;;;;;;;;;4988885;28;100645;-75
2022/06/18 14:34:55;;;;;;;7.30;1.70;;;;;;;;;;4989834;28;97806;-75
2022/06/18 14:37:21;;;;;;;4.93;1.33;;;;;;;;;;4991971;28;99692;-75
2022/06/18 14:39:50;;;;;;;4.07;1.60;;;;;;;;;;4989089;28;99600;-73
2022/06/18 14:42:31;;;;;;;5.47;1.83;;;;;;;;;;4987831;28;99249;-73
2022/06/18 14:45:10;;;;;;;9.38;1.63;;;;;;;;;;4988705;28;100286;-74
2022/06/18 14:47:55;;;;;;;6.38;1.83;;;;;;;;;;4989048;28;98637;-74
2022/06/18 14:50:39;;;;;;;3.03;1.50;;;;;;;;;;4988836;28;99065;-73
2022/06/18 14:53:24;;;;;;;4.03;1.77;;;;;;;;;;4989017;28;100197;-73
2022/06/18 14:55:56;;;;;;;4.07;1.60;;;;;;;;;;4991781;28;98628;-74
2022/06/18 14:58:41;;;;;;;2.88;1.83;;;;;;;;;;4995010;28;100265;-74
2022/06/18 15:01:11;;;;;;;3.05;1.65;;;;;;;;;;4994104;28;98233;-75
2022/06/18 15:03:43;;;;;;;4.45;2.97;;;;;;;;;;4992272;28;99296;-74
2022/06/18 15:06:12;;;;;;;4.38;2.15;;;;;;;;;;4992298;28;99414;-73
2022/06/18 15:08:40;;;;;;;3.28;1.48;;;;;;;;;;4992011;28;99324;-74
2022/06/18 15:11:07;;;;;;;5.25;2.33;;;;;;;;;;4991741;28;100840;-76
2022/06/18 15:13:37;;;;;;;2.72;2.15;;;;;;;;;;4992061;28;100168;-75